AVA078 SKBO-TNCC
Flight info
| Callsign | AVA078 |
|---|---|
| Flight time | 1h 27m |
| Altitude | 37000 |
| Route | OSUSU4R KOVBU UW1 ENPUT UG431 ALCOT DCT EMAPA EMAPA1B |
| Aircraft | A320/M-SDE3FGHIRWY/LB1 |
Departure
| Time | 2026-04-23 19:44 |
|---|---|
| Airport | El Dorado International Airport (SKBO) |
Arrival
| Time | 2026-04-23 21:11 |
|---|---|
| Airport | Hato International Airport (TNCC) |
| Time | Latitude | Longitude | Altitude | Speed | Heading |
|---|---|---|---|---|---|
| 2026-04-23 19:33 | 4.69628 | -74.13392 | 8370 ft | 13 kts | 127° |
| 2026-04-23 19:33 | 4.69606 | -74.13274 | 8370 ft | 9 kts | 70° |
| 2026-04-23 19:34 | 4.69578 | -74.13209 | 8369 ft | 13 kts | 128° |
| 2026-04-23 19:34 | 4.69508 | -74.13118 | 8369 ft | 19 kts | 127° |
| 2026-04-23 19:34 | 4.69366 | -74.12927 | 8370 ft | 15 kts | 127° |
| 2026-04-23 19:35 | 4.69299 | -74.12838 | 8369 ft | 17 kts | 127° |
| 2026-04-23 19:35 | 4.69226 | -74.12742 | 8370 ft | 18 kts | 127° |
| 2026-04-23 19:35 | 4.69149 | -74.12639 | 8370 ft | 19 kts | 125° |
| 2026-04-23 19:35 | 4.69150 | -74.12555 | 8370 ft | 12 kts | 64° |
| 2026-04-23 19:36 | 4.69182 | -74.12532 | 8369 ft | 1 kts | 12° |
| 2026-04-23 19:36 | 4.69183 | -74.12532 | 8369 ft | 0 kts | 13° |
| 2026-04-23 19:37 | 4.69186 | -74.12531 | 8369 ft | 1 kts | 12° |
| 2026-04-23 19:37 | 4.69203 | -74.12528 | 8369 ft | 3 kts | 12° |
| 2026-04-23 19:38 | 4.69231 | -74.12520 | 8369 ft | 5 kts | 16° |
| 2026-04-23 19:38 | 4.69269 | -74.12508 | 8369 ft | 6 kts | 14° |
| 2026-04-23 19:38 | 4.69308 | -74.12524 | 8369 ft | 7 kts | 312° |
| 2026-04-23 19:38 | 4.69318 | -74.12538 | 8369 ft | 0 kts | 303° |
| 2026-04-23 19:43 | 4.69319 | -74.12540 | 8369 ft | 4 kts | 303° |
| 2026-04-23 19:43 | 4.69477 | -74.12770 | 8368 ft | 79 kts | 309° |
| 2026-04-23 19:43 | 4.69960 | -74.13391 | 8370 ft | 143 kts | 307° |
| 2026-04-23 19:44 | 4.70643 | -74.14293 | 8612 ft | 173 kts | 307° |
| 2026-04-23 19:44 | 4.71411 | -74.15270 | 9308 ft | 185 kts | 308° |
| 2026-04-23 19:44 | 4.72208 | -74.16342 | 9973 ft | 197 kts | 307° |
| 2026-04-23 19:44 | 4.73012 | -74.17476 | 10631 ft | 200 kts | 306° |
| 2026-04-23 19:45 | 4.73902 | -74.18561 | 11105 ft | 210 kts | 323° |
| 2026-04-23 19:45 | 4.75304 | -74.19147 | 11318 ft | 232 kts | 353° |
| 2026-04-23 19:45 | 4.76966 | -74.18919 | 11482 ft | 257 kts | 24° |
| 2026-04-23 19:45 | 4.78611 | -74.18002 | 11695 ft | 280 kts | 31° |
| 2026-04-23 19:46 | 4.80299 | -74.16982 | 12349 ft | 284 kts | 31° |
| 2026-04-23 19:46 | 4.81997 | -74.15967 | 13102 ft | 287 kts | 30° |
| 2026-04-23 19:46 | 4.83745 | -74.14942 | 13819 ft | 291 kts | 30° |
| 2026-04-23 19:46 | 4.85508 | -74.13921 | 14476 ft | 295 kts | 29° |
| 2026-04-23 19:47 | 4.86691 | -74.13232 | 14883 ft | 297 kts | 31° |
| 2026-04-23 19:47 | 4.88870 | -74.11493 | 15720 ft | 303 kts | 44° |
| 2026-04-23 19:47 | 4.90397 | -74.09962 | 16017 ft | 320 kts | 44° |
| 2026-04-23 19:47 | 4.92031 | -74.08338 | 16183 ft | 340 kts | 44° |
| 2026-04-23 19:48 | 4.93757 | -74.06630 | 16336 ft | 359 kts | 44° |
| 2026-04-23 19:48 | 4.95560 | -74.04847 | 16487 ft | 376 kts | 44° |
| 2026-04-23 19:48 | 4.97452 | -74.02975 | 16828 ft | 386 kts | 44° |
| 2026-04-23 19:48 | 4.99376 | -74.01071 | 17373 ft | 389 kts | 43° |
| 2026-04-23 19:49 | 5.01495 | -73.99385 | 17888 ft | 391 kts | 31° |
| 2026-04-23 19:49 | 5.03940 | -73.98188 | 18399 ft | 393 kts | 18° |
| 2026-04-23 19:49 | 5.06578 | -73.97468 | 18833 ft | 395 kts | 12° |
| 2026-04-23 19:49 | 5.09254 | -73.96815 | 19325 ft | 396 kts | 12° |
| 2026-04-23 19:50 | 5.11936 | -73.96152 | 19790 ft | 398 kts | 12° |
| 2026-04-23 19:50 | 5.14636 | -73.95481 | 20258 ft | 401 kts | 12° |
| 2026-04-23 19:50 | 5.17346 | -73.94807 | 20734 ft | 403 kts | 12° |
| 2026-04-23 19:50 | 5.20090 | -73.94123 | 21199 ft | 406 kts | 12° |
| 2026-04-23 19:51 | 5.22808 | -73.93447 | 21633 ft | 409 kts | 12° |
| 2026-04-23 19:51 | 5.25578 | -73.92756 | 22119 ft | 411 kts | 12° |
| 2026-04-23 19:51 | 5.28362 | -73.92063 | 22580 ft | 413 kts | 12° |
| 2026-04-23 19:51 | 5.31165 | -73.91364 | 23017 ft | 416 kts | 12° |
| 2026-04-23 19:52 | 5.33074 | -73.90889 | 23303 ft | 418 kts | 12° |
| 2026-04-23 19:52 | 5.36834 | -73.89952 | 23815 ft | 422 kts | 12° |
| 2026-04-23 19:52 | 5.39702 | -73.89238 | 24175 ft | 425 kts | 12° |
| 2026-04-23 19:52 | 5.42581 | -73.88521 | 24520 ft | 428 kts | 12° |
| 2026-04-23 19:53 | 5.45484 | -73.87798 | 24854 ft | 431 kts | 13° |
| 2026-04-23 19:53 | 5.48406 | -73.87071 | 25186 ft | 434 kts | 13° |
| 2026-04-23 19:53 | 5.51338 | -73.86297 | 25501 ft | 437 kts | 17° |
| 2026-04-23 19:53 | 5.54195 | -73.85212 | 25811 ft | 441 kts | 24° |
| 2026-04-23 19:54 | 5.56893 | -73.83809 | 26128 ft | 443 kts | 29° |
| 2026-04-23 19:54 | 5.59584 | -73.82272 | 26445 ft | 446 kts | 29° |
| 2026-04-23 19:54 | 5.62295 | -73.80737 | 26760 ft | 448 kts | 29° |
| 2026-04-23 19:54 | 5.65028 | -73.79193 | 27056 ft | 451 kts | 29° |
| 2026-04-23 19:55 | 5.67764 | -73.77648 | 27344 ft | 453 kts | 29° |
| 2026-04-23 19:55 | 5.70515 | -73.76093 | 27648 ft | 455 kts | 30° |
| 2026-04-23 19:55 | 5.73289 | -73.74524 | 27933 ft | 458 kts | 30° |
| 2026-04-23 19:55 | 5.76070 | -73.72951 | 28214 ft | 460 kts | 30° |
| 2026-04-23 19:56 | 5.78865 | -73.71369 | 28487 ft | 462 kts | 30° |
| 2026-04-23 19:56 | 5.81676 | -73.69777 | 28754 ft | 464 kts | 30° |
| 2026-04-23 19:56 | 5.84494 | -73.68182 | 29025 ft | 466 kts | 30° |
| 2026-04-23 19:56 | 5.87321 | -73.66581 | 29286 ft | 468 kts | 30° |
| 2026-04-23 19:57 | 5.90167 | -73.64970 | 29547 ft | 470 kts | 30° |
| 2026-04-23 19:57 | 5.93017 | -73.63355 | 29823 ft | 472 kts | 30° |
| 2026-04-23 19:57 | 5.94915 | -73.62280 | 29990 ft | 473 kts | 30° |
| 2026-04-23 19:57 | 5.98763 | -73.60107 | 30300 ft | 476 kts | 30° |
| 2026-04-23 19:58 | 6.00677 | -73.59037 | 30449 ft | 477 kts | 30° |
| 2026-04-23 19:58 | 6.04536 | -73.56884 | 30755 ft | 479 kts | 30° |
| 2026-04-23 19:58 | 6.07456 | -73.55257 | 30971 ft | 481 kts | 30° |
| 2026-04-23 19:58 | 6.10387 | -73.53630 | 31247 ft | 481 kts | 30° |
| 2026-04-23 19:59 | 6.13319 | -73.52005 | 31564 ft | 481 kts | 30° |
| 2026-04-23 19:59 | 6.15293 | -73.50913 | 31784 ft | 480 kts | 30° |
| 2026-04-23 19:59 | 6.19170 | -73.48770 | 32210 ft | 479 kts | 30° |
| 2026-04-23 19:59 | 6.21111 | -73.47699 | 32422 ft | 479 kts | 30° |
| 2026-04-23 20:00 | 6.24031 | -73.46089 | 32742 ft | 478 kts | 30° |
| 2026-04-23 20:00 | 6.26946 | -73.44484 | 33044 ft | 478 kts | 30° |
| 2026-04-23 20:00 | 6.29898 | -73.42861 | 33332 ft | 477 kts | 30° |
| 2026-04-23 20:00 | 6.32773 | -73.41285 | 33629 ft | 477 kts | 30° |
| 2026-04-23 20:01 | 6.35693 | -73.39687 | 33909 ft | 476 kts | 30° |
| 2026-04-23 20:01 | 6.38599 | -73.38101 | 34146 ft | 475 kts | 30° |
| 2026-04-23 20:01 | 6.41505 | -73.36518 | 34397 ft | 474 kts | 30° |
| 2026-04-23 20:01 | 6.44404 | -73.34942 | 34649 ft | 473 kts | 30° |
| 2026-04-23 20:02 | 6.47300 | -73.33370 | 34889 ft | 472 kts | 30° |
| 2026-04-23 20:02 | 6.50190 | -73.31807 | 35116 ft | 471 kts | 30° |
| 2026-04-23 20:02 | 6.53074 | -73.30250 | 35346 ft | 470 kts | 30° |
| 2026-04-23 20:02 | 6.55954 | -73.28698 | 35578 ft | 469 kts | 30° |
| 2026-04-23 20:03 | 6.58836 | -73.27147 | 35809 ft | 468 kts | 30° |
| 2026-04-23 20:03 | 6.61713 | -73.25603 | 36011 ft | 468 kts | 30° |
| 2026-04-23 20:03 | 6.64543 | -73.24089 | 36224 ft | 467 kts | 30° |
| 2026-04-23 20:03 | 6.67410 | -73.22558 | 36423 ft | 466 kts | 30° |
| 2026-04-23 20:04 | 6.70276 | -73.21027 | 36623 ft | 465 kts | 30° |
| 2026-04-23 20:04 | 6.73132 | -73.19504 | 36817 ft | 465 kts | 30° |
| 2026-04-23 20:04 | 6.75989 | -73.17986 | 36975 ft | 465 kts | 30° |
| 2026-04-23 20:05 | 6.81698 | -73.14958 | 36965 ft | 463 kts | 30° |
| 2026-04-23 20:05 | 6.87398 | -73.11944 | 36987 ft | 463 kts | 30° |
| 2026-04-23 20:06 | 6.93111 | -73.08932 | 36994 ft | 463 kts | 30° |
| 2026-04-23 20:06 | 6.98809 | -73.05925 | 37002 ft | 462 kts | 30° |
| 2026-04-23 20:07 | 7.04503 | -73.02915 | 37016 ft | 462 kts | 30° |
| 2026-04-23 20:07 | 7.10199 | -72.99897 | 37024 ft | 463 kts | 30° |
| 2026-04-23 20:08 | 7.15895 | -72.96872 | 37026 ft | 463 kts | 30° |
| 2026-04-23 20:08 | 7.21551 | -72.93863 | 37040 ft | 462 kts | 29° |
| 2026-04-23 20:09 | 7.27248 | -72.90828 | 37058 ft | 464 kts | 29° |
| 2026-04-23 20:09 | 7.32968 | -72.87778 | 37068 ft | 465 kts | 29° |
| 2026-04-23 20:10 | 7.38688 | -72.84714 | 37060 ft | 464 kts | 29° |
| 2026-04-23 20:10 | 7.44359 | -72.81669 | 37044 ft | 463 kts | 29° |
| 2026-04-23 20:11 | 7.50043 | -72.78613 | 37032 ft | 462 kts | 29° |
| 2026-04-23 20:11 | 7.55713 | -72.75556 | 37026 ft | 462 kts | 29° |
| 2026-04-23 20:12 | 7.61375 | -72.72495 | 36995 ft | 462 kts | 29° |
| 2026-04-23 20:12 | 7.67040 | -72.69431 | 36980 ft | 462 kts | 29° |
| 2026-04-23 20:13 | 7.72663 | -72.66388 | 36951 ft | 462 kts | 29° |
| 2026-04-23 20:13 | 7.78296 | -72.63255 | 36924 ft | 461 kts | 36° |
| 2026-04-23 20:13 | 7.80752 | -72.61200 | 36914 ft | 458 kts | 48° |
| 2026-04-23 20:14 | 7.82908 | -72.58840 | 36904 ft | 458 kts | 47° |
| 2026-04-23 20:14 | 7.87786 | -72.54688 | 36906 ft | 461 kts | 35° |
| 2026-04-23 20:15 | 7.93300 | -72.51347 | 36910 ft | 464 kts | 30° |
| 2026-04-23 20:15 | 7.98976 | -72.48222 | 36930 ft | 465 kts | 29° |
| 2026-04-23 20:16 | 8.04676 | -72.45094 | 36925 ft | 466 kts | 30° |
| 2026-04-23 20:16 | 8.10348 | -72.41964 | 36928 ft | 468 kts | 30° |
| 2026-04-23 20:17 | 8.16068 | -72.38800 | 36928 ft | 469 kts | 30° |
| 2026-04-23 20:17 | 8.21805 | -72.35626 | 36928 ft | 471 kts | 30° |
| 2026-04-23 20:18 | 8.27561 | -72.32440 | 36924 ft | 472 kts | 30° |
| 2026-04-23 20:18 | 8.33325 | -72.29249 | 36924 ft | 473 kts | 30° |
| 2026-04-23 20:19 | 8.39108 | -72.26046 | 36922 ft | 474 kts | 30° |
| 2026-04-23 20:19 | 8.44884 | -72.22846 | 36919 ft | 474 kts | 30° |
| 2026-04-23 20:20 | 8.50671 | -72.19639 | 36916 ft | 474 kts | 30° |
| 2026-04-23 20:20 | 8.56412 | -72.16455 | 36909 ft | 473 kts | 30° |
| 2026-04-23 20:21 | 8.62179 | -72.13257 | 36904 ft | 473 kts | 30° |
| 2026-04-23 20:21 | 8.67947 | -72.10056 | 36893 ft | 472 kts | 30° |
| 2026-04-23 20:22 | 8.73704 | -72.06861 | 36881 ft | 471 kts | 30° |
| 2026-04-23 20:22 | 8.79450 | -72.03670 | 36870 ft | 471 kts | 30° |
| 2026-04-23 20:23 | 8.85154 | -72.00503 | 36870 ft | 470 kts | 30° |
| 2026-04-23 20:23 | 8.90875 | -71.97324 | 36851 ft | 469 kts | 30° |
| 2026-04-23 20:24 | 8.96601 | -71.94141 | 36847 ft | 468 kts | 30° |
| 2026-04-23 20:24 | 9.02307 | -71.90968 | 36848 ft | 468 kts | 30° |
| 2026-04-23 20:25 | 9.08022 | -71.87789 | 36846 ft | 468 kts | 30° |
| 2026-04-23 20:25 | 9.13728 | -71.84613 | 36845 ft | 468 kts | 30° |
| 2026-04-23 20:26 | 9.19441 | -71.81433 | 36844 ft | 468 kts | 30° |
| 2026-04-23 20:26 | 9.25119 | -71.78271 | 36848 ft | 469 kts | 30° |
| 2026-04-23 20:27 | 9.30848 | -71.75080 | 36854 ft | 470 kts | 30° |
| 2026-04-23 20:27 | 9.36577 | -71.71887 | 36860 ft | 470 kts | 30° |
| 2026-04-23 20:28 | 9.42326 | -71.68682 | 36863 ft | 471 kts | 30° |
| 2026-04-23 20:28 | 9.48077 | -71.65475 | 36870 ft | 472 kts | 30° |
| 2026-04-23 20:29 | 9.53834 | -71.62263 | 36875 ft | 473 kts | 30° |
| 2026-04-23 20:29 | 9.59599 | -71.59046 | 36879 ft | 473 kts | 30° |
| 2026-04-23 20:30 | 9.65366 | -71.55825 | 36881 ft | 473 kts | 30° |
| 2026-04-23 20:30 | 9.73988 | -71.51009 | 36892 ft | 474 kts | 30° |
| 2026-04-23 20:31 | 9.79758 | -71.47784 | 36885 ft | 474 kts | 30° |
| 2026-04-23 20:31 | 9.85528 | -71.44558 | 36881 ft | 473 kts | 30° |
| 2026-04-23 20:32 | 9.91298 | -71.41330 | 36882 ft | 473 kts | 30° |
| 2026-04-23 20:32 | 9.97065 | -71.38103 | 36882 ft | 473 kts | 30° |
| 2026-04-23 20:33 | 10.02828 | -71.34876 | 36879 ft | 472 kts | 30° |
| 2026-04-23 20:33 | 10.08547 | -71.31674 | 36878 ft | 472 kts | 29° |
| 2026-04-23 20:34 | 10.14298 | -71.28451 | 36877 ft | 472 kts | 29° |
| 2026-04-23 20:34 | 10.20042 | -71.25231 | 36865 ft | 472 kts | 29° |
| 2026-04-23 20:35 | 10.25785 | -71.22011 | 36864 ft | 472 kts | 29° |
| 2026-04-23 20:35 | 10.31543 | -71.18781 | 36864 ft | 472 kts | 29° |
| 2026-04-23 20:36 | 10.37299 | -71.15550 | 36867 ft | 472 kts | 29° |
| 2026-04-23 20:36 | 10.43046 | -71.12324 | 36874 ft | 472 kts | 29° |
| 2026-04-23 20:37 | 10.48762 | -71.09114 | 36872 ft | 472 kts | 29° |
| 2026-04-23 20:37 | 10.54523 | -71.05877 | 36875 ft | 473 kts | 29° |
| 2026-04-23 20:38 | 10.60287 | -71.02637 | 36874 ft | 473 kts | 29° |
| 2026-04-23 20:38 | 10.66056 | -70.99392 | 36873 ft | 474 kts | 28° |
| 2026-04-23 20:39 | 10.71830 | -70.96144 | 36873 ft | 474 kts | 28° |
| 2026-04-23 20:39 | 10.77605 | -70.92893 | 36874 ft | 475 kts | 28° |
| 2026-04-23 20:40 | 10.83392 | -70.89634 | 36879 ft | 475 kts | 28° |
| 2026-04-23 20:40 | 10.89170 | -70.86379 | 36881 ft | 475 kts | 28° |
| 2026-04-23 20:41 | 10.94914 | -70.83142 | 36877 ft | 475 kts | 28° |
| 2026-04-23 20:41 | 11.00700 | -70.79879 | 36888 ft | 475 kts | 28° |
| 2026-04-23 20:42 | 11.06467 | -70.76584 | 36881 ft | 475 kts | 33° |
| 2026-04-23 20:42 | 11.09029 | -70.74479 | 36867 ft | 475 kts | 45° |
| 2026-04-23 20:42 | 11.11252 | -70.71997 | 36863 ft | 475 kts | 49° |
| 2026-04-23 20:43 | 11.15593 | -70.66931 | 36868 ft | 474 kts | 49° |
| 2026-04-23 20:43 | 11.19931 | -70.61863 | 36864 ft | 474 kts | 49° |
| 2026-04-23 20:44 | 11.24273 | -70.56789 | 36867 ft | 474 kts | 49° |
| 2026-04-23 20:44 | 11.28582 | -70.51758 | 36654 ft | 475 kts | 49° |
| 2026-04-23 20:45 | 11.30782 | -70.49189 | 36240 ft | 474 kts | 49° |
| 2026-04-23 20:45 | 11.32918 | -70.46692 | 35835 ft | 474 kts | 49° |
| 2026-04-23 20:45 | 11.35081 | -70.44163 | 35418 ft | 474 kts | 49° |
| 2026-04-23 20:45 | 11.37257 | -70.41618 | 35029 ft | 476 kts | 49° |
| 2026-04-23 20:46 | 11.39437 | -70.39069 | 34639 ft | 477 kts | 49° |
| 2026-04-23 20:46 | 11.41622 | -70.36515 | 34249 ft | 478 kts | 49° |
| 2026-04-23 20:46 | 11.43810 | -70.33959 | 33865 ft | 479 kts | 49° |
| 2026-04-23 20:46 | 11.46007 | -70.31397 | 33423 ft | 480 kts | 49° |
| 2026-04-23 20:47 | 11.48206 | -70.28839 | 33002 ft | 476 kts | 49° |
| 2026-04-23 20:47 | 11.50375 | -70.26325 | 32581 ft | 468 kts | 49° |
| 2026-04-23 20:47 | 11.52514 | -70.23852 | 32168 ft | 460 kts | 49° |
| 2026-04-23 20:47 | 11.54612 | -70.21432 | 31748 ft | 452 kts | 49° |
| 2026-04-23 20:48 | 11.55985 | -70.19852 | 31480 ft | 447 kts | 49° |
| 2026-04-23 20:48 | 11.58036 | -70.17496 | 31077 ft | 440 kts | 49° |
| 2026-04-23 20:48 | 11.60053 | -70.15182 | 30677 ft | 433 kts | 49° |
| 2026-04-23 20:48 | 11.62679 | -70.12174 | 30162 ft | 425 kts | 49° |
| 2026-04-23 20:49 | 11.64000 | -70.10659 | 29900 ft | 421 kts | 49° |
| 2026-04-23 20:49 | 11.65934 | -70.08443 | 29445 ft | 416 kts | 48° |
| 2026-04-23 20:49 | 11.67852 | -70.06248 | 28998 ft | 412 kts | 48° |
| 2026-04-23 20:49 | 11.69760 | -70.04063 | 28543 ft | 411 kts | 48° |
| 2026-04-23 20:50 | 11.71632 | -70.01918 | 28134 ft | 410 kts | 48° |
| 2026-04-23 20:50 | 11.73526 | -69.99751 | 27703 ft | 407 kts | 48° |
| 2026-04-23 20:50 | 11.75402 | -69.97607 | 27286 ft | 402 kts | 48° |
| 2026-04-23 20:50 | 11.77258 | -69.95493 | 26865 ft | 398 kts | 48° |
| 2026-04-23 20:51 | 11.79105 | -69.93391 | 26461 ft | 396 kts | 48° |
| 2026-04-23 20:51 | 11.80943 | -69.91308 | 26066 ft | 394 kts | 48° |
| 2026-04-23 20:51 | 11.82779 | -69.89231 | 25671 ft | 392 kts | 48° |
| 2026-04-23 20:51 | 11.84606 | -69.87169 | 25278 ft | 389 kts | 48° |
| 2026-04-23 20:52 | 11.86414 | -69.85135 | 24896 ft | 385 kts | 48° |
| 2026-04-23 20:52 | 11.88190 | -69.83138 | 24520 ft | 382 kts | 48° |
| 2026-04-23 20:52 | 11.89993 | -69.81115 | 24147 ft | 379 kts | 48° |
| 2026-04-23 20:52 | 11.91742 | -69.79159 | 23779 ft | 376 kts | 48° |
| 2026-04-23 20:53 | 11.93503 | -69.77193 | 23395 ft | 374 kts | 48° |
| 2026-04-23 20:53 | 11.95260 | -69.75234 | 22960 ft | 372 kts | 48° |
| 2026-04-23 20:53 | 11.96999 | -69.73291 | 22528 ft | 368 kts | 48° |
| 2026-04-23 20:53 | 11.98720 | -69.71364 | 22100 ft | 365 kts | 48° |
| 2026-04-23 20:54 | 12.00421 | -69.69454 | 21675 ft | 362 kts | 48° |
| 2026-04-23 20:54 | 12.02111 | -69.67554 | 21260 ft | 359 kts | 48° |
| 2026-04-23 20:54 | 12.03736 | -69.65621 | 20845 ft | 361 kts | 57° |
| 2026-04-23 20:54 | 12.04845 | -69.63227 | 20529 ft | 386 kts | 72° |
| 2026-04-23 20:55 | 12.05633 | -69.60600 | 20344 ft | 386 kts | 74° |
| 2026-04-23 20:55 | 12.06409 | -69.58010 | 19726 ft | 389 kts | 72° |
| 2026-04-23 20:55 | 12.07285 | -69.55370 | 18711 ft | 396 kts | 70° |
| 2026-04-23 20:55 | 12.08254 | -69.52703 | 17406 ft | 405 kts | 69° |
| 2026-04-23 20:56 | 12.09280 | -69.50025 | 16328 ft | 403 kts | 68° |
| 2026-04-23 20:56 | 12.10315 | -69.47375 | 15400 ft | 398 kts | 68° |
| 2026-04-23 20:56 | 12.11339 | -69.44766 | 14497 ft | 393 kts | 68° |
| 2026-04-23 20:56 | 12.12349 | -69.42191 | 13602 ft | 388 kts | 68° |
| 2026-04-23 20:57 | 12.13341 | -69.39658 | 12706 ft | 382 kts | 68° |
| 2026-04-23 20:57 | 12.14324 | -69.37143 | 11856 ft | 375 kts | 68° |
| 2026-04-23 20:57 | 12.15281 | -69.34691 | 11018 ft | 369 kts | 68° |
| 2026-04-23 20:57 | 12.16212 | -69.32305 | 10291 ft | 361 kts | 68° |
| 2026-04-23 20:58 | 12.17114 | -69.29993 | 10053 ft | 339 kts | 68° |
| 2026-04-23 20:58 | 12.17957 | -69.27830 | 9866 ft | 317 kts | 68° |
| 2026-04-23 20:58 | 12.18748 | -69.25799 | 9672 ft | 298 kts | 68° |
| 2026-04-23 20:58 | 12.19510 | -69.23846 | 9025 ft | 295 kts | 68° |
| 2026-04-23 20:59 | 12.20271 | -69.21898 | 8359 ft | 295 kts | 68° |
| 2026-04-23 20:59 | 12.21030 | -69.19956 | 7733 ft | 293 kts | 68° |
| 2026-04-23 20:59 | 12.21779 | -69.18038 | 7352 ft | 283 kts | 68° |
| 2026-04-23 20:59 | 12.22468 | -69.16225 | 7199 ft | 264 kts | 73° |
| 2026-04-23 21:00 | 12.22711 | -69.14440 | 7046 ft | 247 kts | 93° |
| 2026-04-23 21:00 | 12.22441 | -69.12746 | 6737 ft | 239 kts | 103° |
| 2026-04-23 21:00 | 12.22080 | -69.11089 | 6288 ft | 238 kts | 103° |
| 2026-04-23 21:00 | 12.21425 | -69.09591 | 5841 ft | 234 kts | 133° |
| 2026-04-23 21:01 | 12.20115 | -69.08674 | 5386 ft | 229 kts | 165° |
| 2026-04-23 21:01 | 12.18559 | -69.08639 | 4934 ft | 225 kts | 198° |
| 2026-04-23 21:01 | 12.17225 | -69.09441 | 4484 ft | 224 kts | 219° |
| 2026-04-23 21:01 | 12.16145 | -69.10586 | 4009 ft | 226 kts | 242° |
| 2026-04-23 21:02 | 12.15699 | -69.12100 | 3747 ft | 219 kts | 260° |
| 2026-04-23 21:02 | 12.15806 | -69.13598 | 3570 ft | 211 kts | 294° |
| 2026-04-23 21:02 | 12.16476 | -69.14922 | 3288 ft | 209 kts | 301° |
| 2026-04-23 21:02 | 12.17189 | -69.16213 | 3004 ft | 207 kts | 301° |
| 2026-04-23 21:03 | 12.17885 | -69.17474 | 2906 ft | 203 kts | 301° |
| 2026-04-23 21:03 | 12.18601 | -69.18767 | 2903 ft | 212 kts | 301° |
| 2026-04-23 21:03 | 12.19318 | -69.20069 | 2892 ft | 208 kts | 301° |
| 2026-04-23 21:03 | 12.20039 | -69.21341 | 2897 ft | 206 kts | 308° |
| 2026-04-23 21:04 | 12.21132 | -69.22204 | 2924 ft | 192 kts | 345° |
| 2026-04-23 21:04 | 12.22348 | -69.22178 | 2890 ft | 164 kts | 29° |
| 2026-04-23 21:04 | 12.23033 | -69.21412 | 2882 ft | 139 kts | 79° |
| 2026-04-23 21:04 | 12.22941 | -69.20426 | 2914 ft | 150 kts | 97° |
| 2026-04-23 21:05 | 12.22872 | -69.19351 | 2906 ft | 151 kts | 92° |
| 2026-04-23 21:05 | 12.22834 | -69.18325 | 2906 ft | 143 kts | 92° |
| 2026-04-23 21:05 | 12.22793 | -69.17298 | 2905 ft | 147 kts | 92° |
| 2026-04-23 21:05 | 12.22750 | -69.16260 | 2903 ft | 144 kts | 91° |
| 2026-04-23 21:06 | 12.22755 | -69.15247 | 2909 ft | 143 kts | 90° |
| 2026-04-23 21:06 | 12.22678 | -69.14217 | 2905 ft | 147 kts | 97° |
| 2026-04-23 21:06 | 12.22499 | -69.13183 | 2906 ft | 148 kts | 100° |
| 2026-04-23 21:06 | 12.22293 | -69.12178 | 2903 ft | 142 kts | 101° |
| 2026-04-23 21:07 | 12.22082 | -69.11171 | 2791 ft | 148 kts | 101° |
| 2026-04-23 21:07 | 12.21864 | -69.10125 | 2593 ft | 150 kts | 101° |
| 2026-04-23 21:07 | 12.21647 | -69.09094 | 2387 ft | 145 kts | 101° |
| 2026-04-23 21:07 | 12.21438 | -69.08093 | 2201 ft | 148 kts | 100° |
| 2026-04-23 21:08 | 12.21228 | -69.07107 | 2018 ft | 136 kts | 100° |
| 2026-04-23 21:08 | 12.21037 | -69.06185 | 1826 ft | 128 kts | 100° |
| 2026-04-23 21:08 | 12.20857 | -69.05332 | 1662 ft | 124 kts | 99° |
| 2026-04-23 21:08 | 12.20670 | -69.04430 | 1510 ft | 131 kts | 100° |
| 2026-04-23 21:09 | 12.20480 | -69.03529 | 1333 ft | 127 kts | 100° |
| 2026-04-23 21:09 | 12.20300 | -69.02666 | 1165 ft | 124 kts | 101° |
| 2026-04-23 21:09 | 12.20115 | -69.01809 | 1058 ft | 120 kts | 99° |
| 2026-04-23 21:09 | 12.19934 | -69.00973 | 958 ft | 122 kts | 100° |
| 2026-04-23 21:10 | 12.19747 | -69.00106 | 833 ft | 129 kts | 99° |
| 2026-04-23 21:10 | 12.19568 | -68.99206 | 624 ft | 127 kts | 99° |
| 2026-04-23 21:10 | 12.19385 | -68.98334 | 374 ft | 123 kts | 100° |
| 2026-04-23 21:10 | 12.19203 | -68.97485 | 181 ft | 123 kts | 98° |
| 2026-04-23 21:11 | 12.19029 | -68.96634 | 61 ft | 119 kts | 100° |
| 2026-04-23 21:11 | 12.18876 | -68.95902 | 43 ft | 77 kts | 102° |
| 2026-04-23 21:11 | 12.18807 | -68.95574 | 40 ft | 36 kts | 103° |
| 2026-04-23 21:11 | 12.18770 | -68.95424 | 42 ft | 14 kts | 120° |
| 2026-04-23 21:12 | 12.18677 | -68.95406 | 41 ft | 15 kts | 208° |
| 2026-04-23 21:12 | 12.18599 | -68.95451 | 43 ft | 0 kts | 227° |
| 2026-04-23 21:12 | 12.18589 | -68.95481 | 43 ft | 7 kts | 266° |
| 2026-04-23 21:12 | 12.18612 | -68.95530 | 43 ft | 9 kts | 302° |
| 2026-04-23 21:13 | 12.18631 | -68.95597 | 41 ft | 12 kts | 287° |
| 2026-04-23 21:13 | 12.18650 | -68.95691 | 42 ft | 13 kts | 276° |
| 2026-04-23 21:13 | 12.18622 | -68.95717 | 43 ft | 6 kts | 185° |
| 2026-04-23 21:13 | 12.18597 | -68.95723 | 42 ft | 0 kts | 197° |
| 2026-04-23 21:14 | 12.18594 | -68.95723 | 43 ft | 2 kts | 193° |
| 2026-04-23 21:14 | 12.18565 | -68.95729 | 43 ft | 4 kts | 191° |
| 2026-04-23 21:14 | 12.18555 | -68.95731 | 43 ft | 3 kts | 191° |
| 2026-04-23 21:14 | 12.18554 | -68.95732 | 43 ft | 0 kts | 191° |